Time;durP1;ratioP1;P1;durP2;ratioP2;P2;SDS_P1;SDS_P2;PMS_P1;PMS_P2;Temp;Humidity;BMP_temperature;BMP_pressure;BME280_temperature;BME280_humidity;BME280_pressure;Samples;Min_cycle;Max_cycle;Signal;HPM_P1;HPM_P2
2023/07/22 00:01:00;;;;;;;14.65;4.07;;;;;;;;;;6178132;23;20025;-58
2023/07/22 00:03:34;;;;;;;11.65;3.05;;;;;;;;;;6176714;23;20063;-58
2023/07/22 00:06:08;;;;;;;13.13;3.45;;;;;;;;;;6178426;23;20361;-65
2023/07/22 00:08:42;;;;;;;14.57;3.40;;;;;;;;;;6177955;23;20029;-65
2023/07/22 00:11:09;;;;;;;16.67;3.92;;;;;;;;;;6177698;23;20029;-64
2023/07/22 00:13:36;;;;;;;15.43;3.90;;;;;;;;;;6177200;23;20025;-65
2023/07/22 00:16:11;;;;;;;16.15;3.97;;;;;;;;;;6177907;23;20028;-57
2023/07/22 00:18:38;;;;;;;13.98;3.15;;;;;;;;;;6176900;23;20028;-58
2023/07/22 00:21:06;;;;;;;12.35;3.10;;;;;;;;;;6178091;23;20028;-58
2023/07/22 00:23:48;;;;;;;13.90;3.50;;;;;;;;;;6175395;23;20431;-58
2023/07/22 00:26:22;;;;;;;11.52;3.40;;;;;;;;;;6174997;23;20035;-59
2023/07/22 00:28:56;;;;;;;15.38;3.85;;;;;;;;;;6176388;23;20096;-58
2023/07/22 00:31:23;;;;;;;13.98;3.83;;;;;;;;;;6175708;23;20028;-58
2023/07/22 00:33:50;;;;;;;10.07;3.20;;;;;;;;;;6176931;23;20029;-56
2023/07/22 00:36:25;;;;;;;12.25;3.72;;;;;;;;;;6175991;23;20025;-58
2023/07/22 00:38:53;;;;;;;13.80;3.75;;;;;;;;;;6176577;23;20033;-58
2023/07/22 00:41:27;;;;;;;10.50;3.83;;;;;;;;;;6177131;23;20032;-58
2023/07/22 00:43:54;;;;;;;12.18;3.67;;;;;;;;;;6177376;23;20025;-60
2023/07/22 00:46:21;;;;;;;11.50;3.47;;;;;;;;;;6174860;23;20034;-52
2023/07/22 00:48:55;;;;;;;11.90;3.60;;;;;;;;;;6175825;23;20100;-50
2023/07/22 00:51:23;;;;;;;7.53;3.38;;;;;;;;;;6175324;23;20025;-53
2023/07/22 00:53:57;;;;;;;8.23;2.95;;;;;;;;;;6177102;23;20376;-50
2023/07/22 00:56:24;;;;;;;16.83;4.28;;;;;;;;;;6175934;23;20031;-53
2023/07/22 00:58:51;;;;;;;;;;;;;;;;;;6176893;23;20021;-51
2023/07/22 01:01:26;;;;;;;9.20;2.92;;;;;;;;;;6151207;23;19916;-59
2023/07/22 01:03:54;;;;;;;11.15;3.55;;;;;;;;;;6175333;23;20024;-59
2023/07/22 01:06:22;;;;;;;12.05;3.78;;;;;;;;;;6175221;23;20103;-59
2023/07/22 01:08:58;;;;;;;11.73;3.50;;;;;;;;;;6177383;23;20596;-58
2023/07/22 01:11:25;;;;;;;13.75;3.92;;;;;;;;;;6175101;23;20421;-51
2023/07/22 01:13:57;;;;;;;15.35;4.32;;;;;;;;;;6176000;23;20029;-64
2023/07/22 01:16:32;;;;;;;12.07;3.80;;;;;;;;;;6176523;23;20040;-65
2023/07/22 01:18:59;;;;;;;15.02;3.92;;;;;;;;;;6177159;23;20025;-64
2023/07/22 01:21:33;;;;;;;13.82;4.00;;;;;;;;;;6174969;23;20029;-64
2023/07/22 01:24:07;;;;;;;18.17;3.80;;;;;;;;;;6173255;23;20021;-64
2023/07/22 01:26:42;;;;;;;8.05;3.13;;;;;;;;;;6175568;23;20113;-64
2023/07/22 01:29:09;;;;;;;18.05;4.10;;;;;;;;;;6176605;23;20024;-54
2023/07/22 01:31:36;;;;;;;10.43;3.67;;;;;;;;;;6149310;23;20574;-58
2023/07/22 01:34:10;;;;;;;11.32;3.80;;;;;;;;;;6175673;23;20028;-57
2023/07/22 01:36:37;;;;;;;6.57;3.53;;;;;;;;;;6175295;23;20374;-58
2023/07/22 01:39:11;;;;;;;6.63;3.42;;;;;;;;;;6175150;23;20028;-58
2023/07/22 01:41:38;;;;;;;21.05;3.92;;;;;;;;;;6173949;23;20080;-58
2023/07/22 01:44:05;;;;;;;9.05;3.67;;;;;;;;;;6177379;23;20612;-59
2023/07/22 01:46:39;;;;;;;9.57;3.42;;;;;;;;;;6175873;23;20033;-59
2023/07/22 01:49:09;;;;;;;14.30;3.72;;;;;;;;;;6176027;23;20025;-59
2023/07/22 01:51:37;;;;;;;13.75;3.88;;;;;;;;;;6174615;23;20048;-59
2023/07/22 01:54:12;;;;;;;11.40;3.72;;;;;;;;;;6173032;23;20075;-59
2023/07/22 01:56:39;;;;;;;7.97;3.10;;;;;;;;;;6175676;23;20056;-59
2023/07/22 01:59:07;;;;;;;8.93;3.25;;;;;;;;;;6175011;23;20083;-58
2023/07/22 02:01:41;;;;;;;6.10;3.17;;;;;;;;;;6174485;23;20021;-58
2023/07/22 02:04:08;;;;;;;16.38;4.07;;;;;;;;;;6177469;23;20148;-60
2023/07/22 02:06:35;;;;;;;10.52;3.90;;;;;;;;;;6172797;23;20021;-59
2023/07/22 02:09:13;;;;;;;11.18;3.60;;;;;;;;;;6174752;23;20025;-59
2023/07/22 02:11:40;;;;;;;10.25;3.50;;;;;;;;;;6176586;23;20033;-60
2023/07/22 02:14:15;;;;;;;5.85;3.58;;;;;;;;;;6174623;23;20531;-60
2023/07/22 02:16:42;;;;;;;7.38;2.92;;;;;;;;;;6175771;23;20033;-60
2023/07/22 02:19:09;;;;;;;8.70;3.35;;;;;;;;;;6176302;23;20463;-60
2023/07/22 02:21:44;;;;;;;10.00;3.22;;;;;;;;;;6174486;23;20420;-59
2023/07/22 02:24:17;;;;;;;16.13;4.57;;;;;;;;;;6174778;23;20029;-60
2023/07/22 02:26:52;;;;;;;10.07;3.60;;;;;;;;;;6175942;23;20025;-64
2023/07/22 02:29:22;;;;;;;10.88;3.67;;;;;;;;;;6175673;23;20027;-63
2023/07/22 02:31:50;;;;;;;7.28;3.25;;;;;;;;;;6175615;23;20420;-63
2023/07/22 02:34:24;;;;;;;10.77;3.47;;;;;;;;;;6174994;23;20036;-63
2023/07/22 02:36:51;;;;;;;9.13;3.42;;;;;;;;;;6175043;23;20021;-50
2023/07/22 02:39:25;;;;;;;9.07;3.85;;;;;;;;;;6150686;23;20028;-54
2023/07/22 02:41:52;;;;;;;8.80;3.47;;;;;;;;;;6175724;23;20040;-51
2023/07/22 02:44:19;;;;;;;9.95;3.50;;;;;;;;;;6175747;23;20547;-54
2023/07/22 02:46:52;;;;;;;9.10;3.50;;;;;;;;;;6169341;23;20075;-53
2023/07/22 02:49:20;;;;;;;11.63;3.35;;;;;;;;;;6175421;23;20025;-52
2023/07/22 02:51:54;;;;;;;7.57;2.90;;;;;;;;;;6175327;23;20091;-49
2023/07/22 02:54:21;;;;;;;10.35;3.45;;;;;;;;;;6175333;23;20029;-51
2023/07/22 02:56:48;;;;;;;10.27;3.20;;;;;;;;;;6175679;23;20572;-59
2023/07/22 02:59:21;;;;;;;11.85;2.58;;;;;;;;;;6149567;23;20029;-59
2023/07/22 03:01:49;;;;;;;8.93;3.05;;;;;;;;;;6173136;23;20420;-58
2023/07/22 03:04:24;;;;;;;8.27;3.20;;;;;;;;;;6176441;23;20029;-58
2023/07/22 03:06:52;;;;;;;9.13;2.70;;;;;;;;;;6175288;23;20017;-61
2023/07/22 03:09:21;;;;;;;13.18;3.33;;;;;;;;;;6173673;23;20628;-62
2023/07/22 03:11:56;;;;;;;6.00;3.30;;;;;;;;;;6173132;23;20028;-63
2023/07/22 03:14:25;;;;;;;6.60;3.00;;;;;;;;;;6176388;23;20067;-63
2023/07/22 03:16:59;;;;;;;16.30;3.10;;;;;;;;;;6174046;23;20500;-63
2023/07/22 03:19:26;;;;;;;10.80;3.30;;;;;;;;;;6175388;23;20379;-64
2023/07/22 03:21:53;;;;;;;6.22;3.20;;;;;;;;;;6175271;23;20208;-64
2023/07/22 03:24:33;;;;;;;8.10;3.88;;;;;;;;;;6174533;23;20056;-52
2023/07/22 03:27:07;;;;;;;8.38;2.90;;;;;;;;;;6175684;23;20052;-48
2023/07/22 03:29:41;;;;;;;11.40;3.22;;;;;;;;;;6174180;23;20084;-52
2023/07/22 03:32:09;;;;;;;9.90;3.60;;;;;;;;;;6176015;23;20415;-51
2023/07/22 03:34:36;;;;;;;11.05;3.03;;;;;;;;;;6177342;23;20538;-60
2023/07/22 03:37:10;;;;;;;10.52;3.40;;;;;;;;;;6177029;23;20480;-60
2023/07/22 03:39:37;;;;;;;8.77;3.38;;;;;;;;;;6177057;23;20028;-60
2023/07/22 03:42:11;;;;;;;15.98;3.45;;;;;;;;;;6176446;23;20032;-60
2023/07/22 03:44:40;;;;;;;9.80;3.30;;;;;;;;;;6171768;23;20607;-59
2023/07/22 03:47:07;;;;;;;12.38;3.35;;;;;;;;;;6175180;23;20028;-60
2023/07/22 03:49:42;;;;;;;7.40;3.15;;;;;;;;;;6176778;23;20500;-60
2023/07/22 03:52:09;;;;;;;6.43;3.30;;;;;;;;;;6175539;23;20520;-59
2023/07/22 03:54:43;;;;;;;8.88;2.90;;;;;;;;;;6176767;23;20516;-59
2023/07/22 03:57:10;;;;;;;;;;;;;;;;;;6150776;23;20388;-59
2023/07/22 03:59:37;;;;;;;6.35;2.65;;;;;;;;;;6176359;23;19953;-59
2023/07/22 04:02:11;;;;;;;11.43;3.58;;;;;;;;;;6176137;23;20025;-61
2023/07/22 04:04:38;;;;;;;9.30;3.33;;;;;;;;;;6176515;23;20080;-60
2023/07/22 04:07:12;;;;;;;5.50;2.53;;;;;;;;;;6171119;23;20488;-60
2023/07/22 04:09:40;;;;;;;5.32;2.95;;;;;;;;;;6175858;23;20075;-60
2023/07/22 04:12:08;;;;;;;12.98;3.15;;;;;;;;;;6176395;23;20362;-60
2023/07/22 04:14:41;;;;;;;9.20;3.65;;;;;;;;;;6174840;23;20029;-60
2023/07/22 04:17:09;;;;;;;9.43;2.78;;;;;;;;;;6175973;23;20032;-59
2023/07/22 04:19:43;;;;;;;6.13;2.60;;;;;;;;;;6177145;23;20028;-59
2023/07/22 04:22:10;;;;;;;8.73;3.17;;;;;;;;;;6176445;23;20080;-59
2023/07/22 04:24:37;;;;;;;6.22;2.90;;;;;;;;;;6176091;23;20028;-59
2023/07/22 04:27:11;;;;;;;6.60;2.83;;;;;;;;;;6175974;23;20025;-59
2023/07/22 04:29:38;;;;;;;4.38;2.63;;;;;;;;;;6176792;23;20025;-58
2023/07/22 04:32:05;;;;;;;6.20;3.03;;;;;;;;;;6176616;23;20099;-60
2023/07/22 04:34:40;;;;;;;6.00;2.58;;;;;;;;;;6176936;23;20079;-59
2023/07/22 04:37:07;;;;;;;10.60;3.25;;;;;;;;;;6174403;23;20080;-59
2023/07/22 04:39:41;;;;;;;5.78;3.20;;;;;;;;;;6177042;23;20037;-59
2023/07/22 04:42:08;;;;;;;9.48;2.72;;;;;;;;;;6175482;23;20474;-60
2023/07/22 04:44:35;;;;;;;7.15;2.88;;;;;;;;;;6176014;23;20519;-60
2023/07/22 04:47:09;;;;;;;7.38;2.63;;;;;;;;;;6176427;23;20029;-59
2023/07/22 04:49:36;;;;;;;5.45;2.70;;;;;;;;;;6177022;23;20047;-59
2023/07/22 04:52:10;;;;;;;4.85;2.30;;;;;;;;;;6174493;23;20017;-60
2023/07/22 04:54:37;;;;;;;6.70;2.70;;;;;;;;;;6177362;23;20217;-60
2023/07/22 04:57:04;;;;;;;7.65;2.67;;;;;;;;;;6175256;23;20087;-59
2023/07/22 04:59:38;;;;;;;6.30;2.58;;;;;;;;;;6176120;23;20029;-60
2023/07/22 05:02:05;;;;;;;;;;;;;;;;;;6150548;23;20583;-54
2023/07/22 05:04:39;;;;;;;5.80;2.53;;;;;;;;;;6175762;23;19920;-51
2023/07/22 05:07:06;;;;;;;7.35;2.45;;;;;;;;;;6175310;23;20091;-54
2023/07/22 05:09:33;;;;;;;6.03;2.10;;;;;;;;;;6175953;23;20025;-51
2023/07/22 05:12:07;;;;;;;3.15;2.30;;;;;;;;;;6175359;23;20032;-53
2023/07/22 05:14:34;;;;;;;6.63;2.45;;;;;;;;;;6175562;23;20517;-53
2023/07/22 05:17:08;;;;;;;5.45;2.42;;;;;;;;;;6177141;23;20571;-58
2023/07/22 05:19:35;;;;;;;;;;;;;;;;;;6176673;23;20025;-58
2023/07/22 05:22:02;;;;;;;7.38;2.22;;;;;;;;;;6174706;23;19978;-58
2023/07/22 05:24:43;;;;;;;8.65;2.15;;;;;;;;;;6176022;23;20025;-58
2023/07/22 05:27:11;;;;;;;4.60;2.08;;;;;;;;;;6175036;23;20025;-59
2023/07/22 05:29:45;;;;;;;5.13;2.33;;;;;;;;;;6176451;23;20021;-59
2023/07/22 05:32:12;;;;;;;7.32;2.45;;;;;;;;;;6176331;23;20092;-50
2023/07/22 05:34:59;;;;;;;6.30;1.95;;;;;;;;;;6177093;23;20445;-49
2023/07/22 05:37:34;;;;;;;5.65;2.17;;;;;;;;;;6174654;23;20025;-54
2023/07/22 05:40:01;;;;;;;4.38;2.17;;;;;;;;;;6176288;23;20796;-51
2023/07/22 05:42:29;;;;;;;2.88;1.80;;;;;;;;;;6174281;23;20025;-52
2023/07/22 05:45:03;;;;;;;6.25;1.90;;;;;;;;;;6176900;23;20083;-51
2023/07/22 05:47:30;;;;;;;;;;;;;;;;;;6151091;23;20025;-60
2023/07/22 05:50:04;;;;;;;7.93;1.90;;;;;;;;;;6174512;23;19916;-64
2023/07/22 05:52:31;;;;;;;7.13;2.00;;;;;;;;;;6175751;23;20494;-60
2023/07/22 05:54:58;;;;;;;5.30;1.98;;;;;;;;;;6176259;23;20018;-60
2023/07/22 05:57:33;;;;;;;8.00;2.20;;;;;;;;;;6175436;23;20025;-54
2023/07/22 06:00:00;;;;;;;;;;;;;;;;;;6176893;23;20025;-55
2023/07/22 06:02:36;;;;;;;6.78;1.98;;;;;;;;;;6173756;23;19927;-54
2023/07/22 06:05:03;;;;;;;6.45;2.13;;;;;;;;;;6174871;23;20036;-51
2023/07/22 06:07:31;;;;;;;4.18;1.50;;;;;;;;;;6175172;23;20025;-49
2023/07/22 06:10:05;;;;;;;11.02;2.10;;;;;;;;;;6176424;23;20028;-52
2023/07/22 06:12:32;;;;;;;4.28;1.70;;;;;;;;;;6173815;23;20631;-52
2023/07/22 06:15:06;;;;;;;6.80;1.98;;;;;;;;;;6174314;23;20032;-50
2023/07/22 06:17:34;;;;;;;9.77;2.10;;;;;;;;;;6174508;23;20021;-51
2023/07/22 06:20:08;;;;;;;6.45;1.70;;;;;;;;;;6174590;23;20506;-49
2023/07/22 06:22:35;;;;;;;7.63;2.22;;;;;;;;;;6174647;23;20025;-49
2023/07/22 06:25:03;;;;;;;6.63;2.33;;;;;;;;;;6175518;23;20107;-51
2023/07/22 06:27:37;;;;;;;4.90;1.90;;;;;;;;;;6175196;23;20021;-60
2023/07/22 06:30:05;;;;;;;6.20;1.85;;;;;;;;;;6173793;23;20021;-60
2023/07/22 06:32:39;;;;;;;7.13;2.10;;;;;;;;;;6174110;23;20025;-60
2023/07/22 06:35:06;;;;;;;;;;;;;;;;;;6175475;23;20108;-60
2023/07/22 06:37:34;;;;;;;7.90;2.08;;;;;;;;;;6175510;23;19916;-60
2023/07/22 06:40:08;;;;;;;6.13;1.90;;;;;;;;;;6176004;23;20025;-60
2023/07/22 06:42:35;;;;;;;7.35;2.00;;;;;;;;;;6174549;23;20095;-63
2023/07/22 06:45:09;;;;;;;4.75;1.80;;;;;;;;;;6174302;23;20028;-61
2023/07/22 06:47:37;;;;;;;7.95;1.85;;;;;;;;;;6174746;23;20023;-63
2023/07/22 06:50:04;;;;;;;4.60;2.20;;;;;;;;;;6175675;23;20024;-62
2023/07/22 06:52:38;;;;;;;9.05;1.67;;;;;;;;;;6174141;23;20076;-62
2023/07/22 06:55:05;;;;;;;5.55;1.80;;;;;;;;;;6176890;23;20021;-60
2023/07/22 06:57:40;;;;;;;4.95;1.80;;;;;;;;;;6175478;23;20100;-61
2023/07/22 07:00:15;;;;;;;5.13;1.73;;;;;;;;;;6176476;23;20420;-61
2023/07/22 07:02:49;;;;;;;4.82;1.42;;;;;;;;;;6174024;23;20076;-61
2023/07/22 07:05:17;;;;;;;4.97;1.75;;;;;;;;;;6175354;23;20025;-62
2023/07/22 07:07:44;;;;;;;6.18;1.83;;;;;;;;;;6174909;23;20109;-62
2023/07/22 07:10:18;;;;;;;8.55;1.75;;;;;;;;;;6175312;23;20029;-61
2023/07/22 07:12:45;;;;;;;7.22;2.03;;;;;;;;;;6175323;23;20025;-60
2023/07/22 07:15:19;;;;;;;5.38;1.73;;;;;;;;;;6175675;23;20071;-59
2023/07/22 07:17:46;;;;;;;3.45;1.52;;;;;;;;;;6176880;23;20449;-59
2023/07/22 07:20:15;;;;;;;6.30;1.77;;;;;;;;;;6174025;23;20513;-59
2023/07/22 07:22:49;;;;;;;4.22;1.60;;;;;;;;;;6175461;23;20289;-58
2023/07/22 07:25:22;;;;;;;2.97;1.55;;;;;;;;;;6174771;23;20024;-53
2023/07/22 07:27:57;;;;;;;7.50;2.38;;;;;;;;;;6172418;23;20072;-51
2023/07/22 07:30:24;;;;;;;4.50;1.30;;;;;;;;;;6176322;23;20428;-50
2023/07/22 07:32:51;;;;;;;3.78;1.50;;;;;;;;;;6174956;23;20160;-52
2023/07/22 07:35:26;;;;;;;6.78;1.80;;;;;;;;;;6171397;23;20025;-49
2023/07/22 07:37:53;;;;;;;4.55;1.67;;;;;;;;;;6173286;23;20099;-52
2023/07/22 07:40:20;;;;;;;7.45;1.75;;;;;;;;;;6175286;23;20029;-58
2023/07/22 07:42:55;;;;;;;4.20;1.77;;;;;;;;;;6172711;23;20060;-58
2023/07/22 07:45:31;;;;;;;6.05;1.58;;;;;;;;;;6144480;23;20025;-57
2023/07/22 07:48:05;;;;;;;6.03;1.73;;;;;;;;;;6170864;23;20099;-57
2023/07/22 07:50:32;;;;;;;;;;;;;;;;;;6167177;23;20031;-52
2023/07/22 07:53:05;;;;;;;5.97;1.60;;;;;;;;;;6167368;23;19920;-63
2023/07/22 07:55:33;;;;;;;4.05;1.27;;;;;;;;;;6169633;23;20033;-63
2023/07/22 07:58:00;;;;;;;2.63;1.20;;;;;;;;;;6169717;23;20024;-63
2023/07/22 08:00:34;;;;;;;1.73;1.15;;;;;;;;;;6172237;23;20550;-63
2023/07/22 08:03:01;;;;;;;4.32;1.33;;;;;;;;;;6173048;23;20021;-64
2023/07/22 08:05:28;;;;;;;2.75;1.20;;;;;;;;;;6172149;23;20425;-63
2023/07/22 08:08:03;;;;;;;6.70;1.50;;;;;;;;;;6174170;23;20017;-50
2023/07/22 08:10:30;;;;;;;3.88;1.20;;;;;;;;;;6171606;23;20043;-50
2023/07/22 08:13:04;;;;;;;6.55;1.17;;;;;;;;;;6172288;23;20104;-53
2023/07/22 08:15:31;;;;;;;1.92;1.05;;;;;;;;;;6174329;23;20028;-53
2023/07/22 08:17:58;;;;;;;4.13;1.30;;;;;;;;;;6172147;23;20025;-62
2023/07/22 08:20:32;;;;;;;6.07;1.15;;;;;;;;;;6173566;23;20107;-57
2023/07/22 08:22:59;;;;;;;7.25;1.23;;;;;;;;;;6173923;23;20021;-61
2023/07/22 08:25:45;;;;;;;1.92;1.00;;;;;;;;;;5826665;23;8187410;-61
2023/07/22 08:28:19;;;;;;;1.73;0.95;;;;;;;;;;6176175;23;20029;-61
2023/07/22 08:30:57;;;;;;;3.15;1.00;;;;;;;;;;6175778;23;20025;-61
2023/07/22 08:33:24;;;;;;;5.40;1.40;;;;;;;;;;6172556;23;20030;-61
2023/07/22 08:36:06;;;;;;;3.83;1.05;;;;;;;;;;6173372;23;20028;-53
2023/07/22 08:38:41;;;;;;;5.75;1.40;;;;;;;;;;6169062;23;20025;-50
2023/07/22 08:41:08;;;;;;;2.80;1.08;;;;;;;;;;6174437;23;20083;-53
2023/07/22 08:43:42;;;;;;;4.80;1.25;;;;;;;;;;6174107;23;20111;-51
2023/07/22 08:46:09;;;;;;;2.63;1.20;;;;;;;;;;6172215;23;20025;-59
2023/07/22 08:48:37;;;;;;;;;;;;;;;;;;6176296;23;20029;-59
2023/07/22 08:51:13;;;;;;;3.20;1.10;;;;;;;;;;6175788;23;20342;-61
2023/07/22 08:53:47;;;;;;;3.85;1.00;;;;;;;;;;6175696;23;20040;-62
2023/07/22 08:56:43;;;;;;;1.85;0.85;;;;;;;;;;6175153;23;20033;-61
2023/07/22 08:59:12;;;;;;;1.83;0.85;;;;;;;;;;6175884;23;20083;-61
2023/07/22 09:01:47;;;;;;;1.77;1.13;;;;;;;;;;6174910;23;20025;-62
2023/07/22 09:04:14;;;;;;;3.65;1.45;;;;;;;;;;6176120;23;20033;-61
2023/07/22 09:06:42;;;;;;;1.73;0.88;;;;;;;;;;6174295;23;20072;-59
2023/07/22 09:09:16;;;;;;;3.83;1.17;;;;;;;;;;6175387;23;20029;-61
2023/07/22 09:11:45;;;;;;;1.70;0.85;;;;;;;;;;6174027;23;20075;-59
2023/07/22 09:14:19;;;;;;;3.75;1.00;;;;;;;;;;6176807;23;20092;-59
2023/07/22 09:17:02;;;;;;;1.98;0.90;;;;;;;;;;6176289;23;20075;-62
2023/07/22 09:19:36;;;;;;;3.10;1.02;;;;;;;;;;6174590;23;20095;-61
2023/07/22 09:22:03;;;;;;;4.60;1.23;;;;;;;;;;6176963;23;20432;-61
2023/07/22 09:24:30;;;;;;;0.85;0.68;;;;;;;;;;6173488;23;20105;-61
2023/07/22 09:27:10;;;;;;;4.00;0.95;;;;;;;;;;6175827;23;20055;-61
2023/07/22 09:29:39;;;;;;;1.55;0.73;;;;;;;;;;6173657;23;20083;-61
2023/07/22 09:32:13;;;;;;;4.78;0.80;;;;;;;;;;6175465;23;20029;-61
2023/07/22 09:34:55;;;;;;;2.45;1.00;;;;;;;;;;6176176;23;20021;-61
2023/07/22 09:37:37;;;;;;;2.90;1.00;;;;;;;;;;6177263;23;20029;-60
2023/07/22 09:40:18;;;;;;;2.75;1.15;;;;;;;;;;6147344;23;20035;-63
2023/07/22 09:42:54;;;;;;;1.13;0.93;;;;;;;;;;6175799;23;20040;-60
2023/07/22 09:45:29;;;;;;;1.88;1.10;;;;;;;;;;6176148;23;20076;-59
2023/07/22 09:47:57;;;;;;;0.88;0.70;;;;;;;;;;6174462;23;20446;-51
2023/07/22 09:50:25;;;;;;;2.70;1.10;;;;;;;;;;6175072;23;20020;-53
2023/07/22 09:53:01;;;;;;;3.83;1.08;;;;;;;;;;6175266;23;20029;-51
2023/07/22 09:55:35;;;;;;;2.08;1.20;;;;;;;;;;6174503;23;20181;-51
2023/07/22 09:58:03;;;;;;;1.73;1.10;;;;;;;;;;6175597;23;20037;-51
2023/07/22 10:00:37;;;;;;;3.13;1.00;;;;;;;;;;6172424;23;20085;-53
2023/07/22 10:03:08;;;;;;;2.47;1.05;;;;;;;;;;6174154;23;20540;-53
2023/07/22 10:05:44;;;;;;;3.72;1.33;;;;;;;;;;6173222;23;20484;-51
2023/07/22 10:08:12;;;;;;;3.40;0.90;;;;;;;;;;6175403;23;20054;-54
2023/07/22 10:10:40;;;;;;;3.58;1.20;;;;;;;;;;6175623;23;20029;-54
2023/07/22 10:13:14;;;;;;;3.50;1.25;;;;;;;;;;6174769;23;20025;-52
2023/07/22 10:15:42;;;;;;;2.35;1.40;;;;;;;;;;6173687;23;20025;-59
2023/07/22 10:18:17;;;;;;;3.05;1.13;;;;;;;;;;6172193;23;20025;-58
2023/07/22 10:20:45;;;;;;;3.55;1.10;;;;;;;;;;6171901;23;20029;-58
2023/07/22 10:23:14;;;;;;;2.97;1.00;;;;;;;;;;6175780;23;20093;-58
2023/07/22 10:25:55;;;;;;;4.30;0.98;;;;;;;;;;6174855;23;20095;-58
2023/07/22 10:28:23;;;;;;;2.50;0.82;;;;;;;;;;6176199;23;20492;-58
2023/07/22 10:30:57;;;;;;;4.03;1.05;;;;;;;;;;6176745;23;20480;-60
2023/07/22 10:33:25;;;;;;;2.60;1.10;;;;;;;;;;6176054;23;20072;-59
2023/07/22 10:36:09;;;;;;;2.30;1.25;;;;;;;;;;6175803;23;20650;-60
2023/07/22 10:38:36;;;;;;;2.13;0.88;;;;;;;;;;6172525;23;20052;-60
2023/07/22 10:41:16;;;;;;;2.85;1.00;;;;;;;;;;6173680;23;20448;-59
2023/07/22 10:43:55;;;;;;;1.25;0.93;;;;;;;;;;6172720;23;20353;-54
2023/07/22 10:46:43;;;;;;;5.40;1.08;;;;;;;;;;6174950;23;20029;-51
2023/07/22 10:49:12;;;;;;;4.00;1.15;;;;;;;;;;6173112;23;20025;-54
2023/07/22 10:51:50;;;;;;;4.18;1.20;;;;;;;;;;6175723;23;20021;-48
2023/07/22 10:54:36;;;;;;;2.58;1.08;;;;;;;;;;6173966;23;20485;-52
2023/07/22 10:57:26;;;;;;;4.47;0.90;;;;;;;;;;6175678;23;20032;-53
2023/07/22 10:59:56;;;;;;;3.47;1.30;;;;;;;;;;6175404;23;20492;-58
2023/07/22 11:02:30;;;;;;;3.25;0.98;;;;;;;;;;6175404;23;20880;-58
2023/07/22 11:05:05;;;;;;;2.95;1.40;;;;;;;;;;6175410;23;20025;-58
2023/07/22 11:07:47;;;;;;;2.40;1.05;;;;;;;;;;6149838;23;20029;-58
2023/07/22 11:10:21;;;;;;;6.83;1.40;;;;;;;;;;6175537;23;20035;-49
2023/07/22 11:12:48;;;;;;;;;;;;;;;;;;6175786;23;20025;-51
2023/07/22 11:15:17;;;;;;;2.25;1.02;;;;;;;;;;6174391;23;19916;-51
2023/07/22 11:17:51;;;;;;;4.60;1.08;;;;;;;;;;6175315;23;20107;-50
2023/07/22 11:20:18;;;;;;;2.75;1.00;;;;;;;;;;6175964;23;20223;-49
2023/07/22 11:22:52;;;;;;;6.45;1.30;;;;;;;;;;6175164;23;20021;-48
2023/07/22 11:25:26;;;;;;;2.58;1.10;;;;;;;;;;6175665;23;20476;-52
2023/07/22 11:28:06;;;;;;;4.68;1.13;;;;;;;;;;6175147;23;20361;-59
2023/07/22 11:30:34;;;;;;;3.85;1.10;;;;;;;;;;6176020;23;20028;-58
2023/07/22 11:33:08;;;;;;;4.53;1.42;;;;;;;;;;6175877;23;20020;-58
2023/07/22 11:35:35;;;;;;;;;;;;;;;;;;6175560;23;20031;-58
2023/07/22 11:38:03;;;;;;;2.30;1.20;;;;;;;;;;6176157;23;19978;-54
2023/07/22 11:40:38;;;;;;;2.28;1.27;;;;;;;;;;6175661;23;20476;-62
2023/07/22 11:43:05;;;;;;;6.10;1.50;;;;;;;;;;6174895;23;20025;-62
2023/07/22 11:45:41;;;;;;;5.22;1.52;;;;;;;;;;6174843;23;20435;-62
2023/07/22 11:48:12;;;;;;;5.28;1.73;;;;;;;;;;6176223;23;20096;-62
2023/07/22 11:50:47;;;;;;;5.07;1.73;;;;;;;;;;6175481;23;20080;-62
2023/07/22 11:53:14;;;;;;;5.78;1.45;;;;;;;;;;6174816;23;20504;-61
2023/07/22 11:55:42;;;;;;;5.35;1.52;;;;;;;;;;6177824;23;20361;-52
2023/07/22 11:58:24;;;;;;;4.25;1.48;;;;;;;;;;6152904;23;20483;-52
2023/07/22 12:01:03;;;;;;;4.90;1.27;;;;;;;;;;6177288;23;20021;-50
2023/07/22 12:03:37;;;;;;;5.35;1.70;;;;;;;;;;6177226;23;20089;-53
2023/07/22 12:06:06;;;;;;;7.35;1.80;;;;;;;;;;6177492;23;20024;-58
2023/07/22 12:08:34;;;;;;;4.57;1.80;;;;;;;;;;6176178;23;20029;-55
2023/07/22 12:11:16;;;;;;;5.60;1.70;;;;;;;;;;6178046;23;20484;-54
2023/07/22 12:13:46;;;;;;;5.70;1.42;;;;;;;;;;6176669;23;20025;-55
2023/07/22 12:16:23;;;;;;;3.00;1.40;;;;;;;;;;6177832;23;20029;-55
2023/07/22 12:18:55;;;;;;;4.53;1.92;;;;;;;;;;6170125;23;20500;-54
2023/07/22 12:21:49;;;;;;;3.97;1.60;;;;;;;;;;6175161;23;20029;-54
2023/07/22 12:24:41;;;;;;;4.53;1.67;;;;;;;;;;6175699;23;20040;-63
2023/07/22 12:27:35;;;;;;;4.95;1.50;;;;;;;;;;6177220;23;20033;-62
2023/07/22 12:30:23;;;;;;;5.43;2.35;;;;;;;;;;6174951;23;20489;-62
2023/07/22 12:32:58;;;;;;;5.75;1.90;;;;;;;;;;6177223;23;20021;-62
2023/07/22 12:35:32;;;;;;;8.88;2.10;;;;;;;;;;6174559;23;20076;-56
2023/07/22 12:38:06;;;;;;;8.52;2.08;;;;;;;;;;6173265;23;20032;-56
2023/07/22 12:40:33;;;;;;;4.45;1.58;;;;;;;;;;6176703;23;20087;-51
2023/07/22 12:43:00;;;;;;;6.88;2.10;;;;;;;;;;6176852;23;20024;-56
2023/07/22 12:45:34;;;;;;;8.27;2.30;;;;;;;;;;6173645;23;20052;-53
2023/07/22 12:48:01;;;;;;;6.60;1.70;;;;;;;;;;6176471;23;20029;-55
2023/07/22 12:50:32;;;;;;;8.43;1.92;;;;;;;;;;6174537;23;20029;-55
2023/07/22 12:53:06;;;;;;;7.80;1.87;;;;;;;;;;6176832;23;20083;-57
2023/07/22 12:55:33;;;;;;;3.78;1.67;;;;;;;;;;6175864;23;20303;-56
2023/07/22 12:58:00;;;;;;;8.27;2.28;;;;;;;;;;6175603;23;20021;-53
2023/07/22 13:00:34;;;;;;;4.80;1.67;;;;;;;;;;6171296;23;20079;-53
2023/07/22 13:03:01;;;;;;;6.57;2.15;;;;;;;;;;6173229;23;20136;-52
2023/07/22 13:05:36;;;;;;;7.53;1.90;;;;;;;;;;6171557;23;20029;-51
2023/07/22 13:08:03;;;;;;;4.40;1.85;;;;;;;;;;6171091;23;20064;-51
2023/07/22 13:10:33;;;;;;;8.48;2.10;;;;;;;;;;6172443;23;20496;-59
2023/07/22 13:13:07;;;;;;;6.28;1.90;;;;;;;;;;6170392;23;20369;-62
2023/07/22 13:15:34;;;;;;;6.03;2.03;;;;;;;;;;6169191;23;20391;-67
2023/07/22 13:18:08;;;;;;;4.22;1.85;;;;;;;;;;6172042;23;20049;-66
2023/07/22 13:20:35;;;;;;;4.63;2.00;;;;;;;;;;6174510;23;20029;-65
2023/07/22 13:23:02;;;;;;;7.38;1.98;;;;;;;;;;6174202;23;20072;-65
2023/07/22 13:25:43;;;;;;;4.57;1.83;;;;;;;;;;6175048;23;20095;-65
2023/07/22 13:28:10;;;;;;;10.30;2.30;;;;;;;;;;6175462;23;20442;-64
2023/07/22 13:30:44;;;;;;;7.43;2.53;;;;;;;;;;6176313;23;20025;-61
2023/07/22 13:33:11;;;;;;;4.07;1.77;;;;;;;;;;6174235;23;20021;-59
2023/07/22 13:35:38;;;;;;;4.10;1.80;;;;;;;;;;6176323;23;20496;-58
2023/07/22 13:38:13;;;;;;;7.55;2.00;;;;;;;;;;6174375;23;20452;-59
2023/07/22 13:41:00;;;;;;;5.65;1.90;;;;;;;;;;6176909;23;20398;-58
2023/07/22 13:43:54;;;;;;;4.68;1.73;;;;;;;;;;6174824;23;20080;-59
2023/07/22 13:46:41;;;;;;;3.85;1.80;;;;;;;;;;6173862;23;20017;-58
2023/07/22 13:49:56;;;;;;;5.63;1.70;;;;;;;;;;6172542;23;20355;-61
2023/07/22 13:52:44;;;;;;;5.85;1.60;;;;;;;;;;6173251;23;20033;-60
2023/07/22 13:55:38;;;;;;;4.18;1.55;;;;;;;;;;6174235;23;20025;-60
2023/07/22 13:58:25;;;;;;;8.50;1.83;;;;;;;;;;6175082;23;20481;-58
2023/07/22 14:01:19;;;;;;;5.75;1.73;;;;;;;;;;6175105;23;20030;-52
2023/07/22 14:04:06;;;;;;;4.38;1.98;;;;;;;;;;6172285;23;20079;-52
2023/07/22 14:07:00;;;;;;;4.03;2.08;;;;;;;;;;6174879;23;20017;-50
2023/07/22 14:09:47;;;;;;;7.72;1.88;;;;;;;;;;6173269;23;20039;-50
2023/07/22 14:12:41;;;;;;;7.28;2.10;;;;;;;;;;6174644;23;20029;-52
2023/07/22 14:15:28;;;;;;;5.47;1.70;;;;;;;;;;6173656;23;20025;-52
2023/07/22 14:18:35;;;;;;;8.35;1.90;;;;;;;;;;6173993;23;20021;-53
2023/07/22 14:21:22;;;;;;;5.47;1.83;;;;;;;;;;6174697;23;20046;-50
2023/07/22 14:24:30;;;;;;;7.82;2.05;;;;;;;;;;6174008;23;20025;-50
2023/07/22 14:27:24;;;;;;;6.53;1.98;;;;;;;;;;6176219;23;20028;-58
2023/07/22 14:30:18;;;;;;;13.30;2.20;;;;;;;;;;6174396;23;20072;-57
2023/07/22 14:33:05;;;;;;;7.55;2.17;;;;;;;;;;6176251;23;20017;-56
2023/07/22 14:35:59;;;;;;;6.10;2.20;;;;;;;;;;6176366;23;20049;-57
2023/07/22 14:38:46;;;;;;;5.63;2.00;;;;;;;;;;6173761;23;20563;-57
2023/07/22 14:41:43;;;;;;;5.65;2.08;;;;;;;;;;6176119;23;20029;-58
2023/07/22 14:44:29;;;;;;;7.47;2.22;;;;;;;;;;6174648;23;20073;-64
2023/07/22 14:47:23;;;;;;;7.63;2.30;;;;;;;;;;6176045;23;20498;-65
2023/07/22 14:50:10;;;;;;;7.05;2.42;;;;;;;;;;6174865;23;20100;-64
2023/07/22 14:53:04;;;;;;;6.05;1.88;;;;;;;;;;6175514;23;20025;-65
2023/07/22 14:55:51;;;;;;;9.20;1.80;;;;;;;;;;6173837;23;20028;-61
2023/07/22 14:58:45;;;;;;;7.57;1.90;;;;;;;;;;6174793;23;20416;-61
2023/07/22 15:01:39;;;;;;;5.25;1.58;;;;;;;;;;6175019;23;20432;-61
2023/07/22 15:04:32;;;;;;;7.22;1.90;;;;;;;;;;6174803;23;20079;-61
2023/07/22 15:07:19;;;;;;;7.50;2.22;;;;;;;;;;6175860;23;20029;-61
2023/07/22 15:10:15;;;;;;;6.60;1.83;;;;;;;;;;6169440;23;20499;-61
2023/07/22 15:13:00;;;;;;;5.70;1.88;;;;;;;;;;6175851;23;20088;-58
2023/07/22 15:15:56;;;;;;;4.57;1.50;;;;;;;;;;6175659;23;20029;-58
2023/07/22 15:18:48;;;;;;;5.35;1.50;;;;;;;;;;6173579;23;20027;-57
2023/07/22 15:21:42;;;;;;;7.65;2.00;;;;;;;;;;6174895;23;20075;-56